Time;durP1;ratioP1;P1;durP2;ratioP2;P2;SDS_P1;SDS_P2;PMS_P1;PMS_P2;Temp;Humidity;BMP_temperature;BMP_pressure;BME280_temperature;BME280_humidity;BME280_pressure;Samples;Min_cycle;Max_cycle;Signal;HPM_P1;HPM_P2
2023/07/25 00:01:44;;;;;;;14.83;10.50;;;;;;;24.97;56.49;94574.81;5054884;28;20495;-77
2023/07/25 00:04:13;;;;;;;18.50;11.97;;;;;;;25.00;56.93;94581.63;5054954;28;20788;-78
2023/07/25 00:06:40;;;;;;;16.50;11.43;;;;;;;25.04;56.91;94582.81;5019562;28;20941;-78
2023/07/25 00:09:07;;;;;;;15.17;10.63;;;;;;;24.99;56.71;94590.72;5035783;28;20444;-78
2023/07/25 00:11:34;;;;;;;16.70;11.70;;;;;;;24.99;57.45;94588.03;5054657;28;20491;-78
2023/07/25 00:14:00;;;;;;;17.60;10.17;;;;;;;24.98;57.24;94595.28;5054245;28;20445;-77
2023/07/25 00:16:31;;;;;;;18.53;11.93;;;;;;;24.95;57.69;94589.50;5054467;28;21002;-78
2023/07/25 00:18:58;;;;;;;16.30;10.80;;;;;;;24.96;57.62;94591.16;5054549;28;20448;-77
2023/07/25 00:21:25;;;;;;;16.83;11.63;;;;;;;24.93;57.93;94586.22;5054177;28;20449;-78
2023/07/25 00:23:51;;;;;;;15.40;11.40;;;;;;;24.88;58.16;94583.41;5054314;28;20816;-77
2023/07/25 00:26:18;;;;;;;14.80;10.90;;;;;;;24.88;58.41;94589.59;5054486;28;20502;-78
2023/07/25 00:28:45;;;;;;;15.33;11.03;;;;;;;24.85;58.20;94573.09;5054321;28;20506;-78
2023/07/25 00:31:12;;;;;;;17.33;12.10;;;;;;;24.82;58.93;94581.59;5054233;28;20503;-78
2023/07/25 00:33:40;;;;;;;16.53;11.10;;;;;;;24.79;58.97;94566.78;5053059;28;20457;-78
2023/07/25 00:36:07;;;;;;;14.27;10.50;;;;;;;24.75;58.49;94554.84;5054531;28;20476;-77
2023/07/25 00:38:33;;;;;;;16.70;11.37;;;;;;;24.78;58.50;94567.00;4986349;28;20439;-77
2023/07/25 00:41:00;;;;;;;20.50;11.67;;;;;;;24.78;58.03;94557.06;5054577;28;20808;-78
2023/07/25 00:43:27;;;;;;;21.53;12.20;;;;;;;24.78;58.68;94554.41;5054075;28;20818;-77
2023/07/25 00:45:54;;;;;;;18.00;12.00;;;;;;;24.72;58.01;94549.94;5054517;28;20452;-78
2023/07/25 00:48:21;;;;;;;15.50;11.13;;;;;;;24.63;59.08;94557.47;5054156;28;20449;-78
2023/07/25 00:50:52;;;;;;;15.70;10.67;;;;;;;24.59;59.29;94558.97;5054163;28;20495;-78
2023/07/25 00:53:19;;;;;;;15.07;11.93;;;;;;;24.52;59.01;94568.13;5054144;28;20452;-78
2023/07/25 00:55:46;;;;;;;16.30;11.13;;;;;;;24.48;59.07;94561.56;5053762;28;20451;-77
2023/07/25 00:58:13;;;;;;;12.37;10.50;;;;;;;24.42;59.69;94552.56;5035120;28;20444;-77
2023/07/25 01:00:40;;;;;;;16.33;11.80;;;;;;;24.41;59.50;94545.56;5053949;28;20448;-77
2023/07/25 01:03:07;;;;;;;15.47;10.57;;;;;;;24.35;60.01;94549.16;5053819;28;20484;-78
2023/07/25 01:05:36;;;;;;;12.80;10.20;;;;;;;24.38;60.02;94551.38;5054007;28;20783;-78
2023/07/25 01:08:04;;;;;;;25.30;12.33;;;;;;;24.35;59.95;94547.28;5054001;28;20463;-78
2023/07/25 01:10:32;;;;;;;13.73;11.30;;;;;;;24.39;60.21;94543.09;5053677;28;20491;-78
2023/07/25 01:13:00;;;;;;;16.70;11.27;;;;;;;24.44;60.30;94545.09;5053940;28;20806;-77
2023/07/25 01:15:29;;;;;;;15.60;11.60;;;;;;;24.45;60.34;94544.06;5053508;28;20453;-78
2023/07/25 01:17:56;;;;;;;16.30;11.50;;;;;;;24.45;60.81;94546.75;5053475;28;20450;-78
2023/07/25 01:20:24;;;;;;;18.07;11.97;;;;;;;24.51;59.95;94545.84;5053732;28;20459;-77
2023/07/25 01:22:54;;;;;;;14.67;11.87;;;;;;;24.54;60.38;94545.41;5053703;28;20463;-77
2023/07/25 01:25:24;;;;;;;13.13;11.33;;;;;;;24.50;60.56;94549.56;5053224;28;20448;-77
2023/07/25 01:27:51;;;;;;;15.07;11.03;;;;;;;24.44;61.01;94550.47;5034525;28;20465;-78
2023/07/25 01:30:18;;;;;;;15.40;11.80;;;;;;;24.44;60.64;94561.19;5053050;28;20496;-78
2023/07/25 01:32:46;;;;;;;17.97;12.10;;;;;;;24.43;60.98;94554.19;5053370;28;20456;-77
2023/07/25 01:35:12;;;;;;;22.00;13.00;;;;;;;24.45;60.98;94559.34;5053115;28;20931;-78
2023/07/25 01:37:41;;;;;;;15.40;11.60;;;;;;;24.45;61.84;94554.78;5053147;28;20841;-78
2023/07/25 01:40:09;;;;;;;15.60;11.50;;;;;;;24.47;61.28;94533.94;5053242;28;20819;-78
2023/07/25 01:42:37;;;;;;;16.17;11.63;;;;;;;24.49;61.63;94537.19;5017871;28;20447;-78
2023/07/25 01:45:05;;;;;;;19.40;12.27;;;;;;;24.50;61.01;94525.44;5052809;28;20445;-78
2023/07/25 01:47:33;;;;;;;15.47;8.97;;;;;;;24.46;60.96;94524.25;5018140;28;20659;-78
2023/07/25 01:49:59;;;;;;;16.87;12.10;;;;;;;24.49;60.63;94531.03;5053002;28;20437;-78
2023/07/25 01:52:26;;;;;;;15.23;10.97;;;;;;;24.49;60.68;94533.69;5053071;28;20474;-78
2023/07/25 01:54:55;;;;;;;26.83;11.30;;;;;;;24.41;60.17;94542.88;5052800;28;20451;-78
2023/07/25 01:57:24;;;;;;;18.13;13.00;;;;;;;24.36;60.00;94542.72;5052580;28;20448;-78
2023/07/25 01:59:52;;;;;;;13.10;10.80;;;;;;;24.37;60.19;94544.38;5052760;28;20447;-78
2023/07/25 02:02:22;;;;;;;16.13;11.03;;;;;;;24.39;60.34;94547.66;5034244;28;20466;-78
2023/07/25 02:04:49;;;;;;;17.53;12.30;;;;;;;24.32;60.38;94549.59;5052662;28;20458;-78
2023/07/25 02:07:15;;;;;;;15.20;11.00;;;;;;;24.26;60.47;94556.59;5052955;28;20811;-78
2023/07/25 02:09:42;;;;;;;20.80;12.67;;;;;;;24.05;62.25;94554.38;5052733;28;20464;-77
2023/07/25 02:12:10;;;;;;;14.63;11.13;;;;;;;23.68;63.93;94558.81;5052393;28;20493;-77
2023/07/25 02:14:36;;;;;;;20.27;11.90;;;;;;;23.60;64.60;94573.31;5052736;28;20445;-78
2023/07/25 02:17:05;;;;;;;19.53;12.20;;;;;;;22.88;67.44;94577.25;5052275;28;20445;-78
2023/07/25 02:19:32;;;;;;;21.43;12.87;;;;;;;22.81;67.94;94582.59;5033658;28;20447;-78
2023/07/25 02:21:59;;;;;;;18.67;11.90;;;;;;;22.45;69.11;94575.09;5052220;28;20457;-78
2023/07/25 02:24:26;;;;;;;22.47;13.07;;;;;;;22.45;69.09;94584.97;5052171;28;20444;-77
2023/07/25 02:26:52;;;;;;;16.17;10.90;;;;;;;22.27;69.08;94587.50;5052528;28;20453;-77
2023/07/25 02:29:19;;;;;;;20.07;12.03;;;;;;;22.36;69.10;94588.91;5052324;28;20880;-77
2023/07/25 02:31:46;;;;;;;20.17;12.13;;;;;;;22.50;69.06;94590.50;5052038;28;20491;-77
2023/07/25 02:34:15;;;;;;;25.80;11.60;;;;;;;22.64;68.41;94599.31;5051986;28;20438;-77
2023/07/25 02:36:42;;;;;;;16.23;9.83;;;;;;;22.80;68.11;94605.00;5052128;28;20451;-77
2023/07/25 02:39:09;;;;;;;19.47;11.97;;;;;;;22.93;67.94;94601.50;5052254;28;20455;-78
2023/07/25 02:41:36;;;;;;;21.40;11.80;;;;;;;23.06;67.47;94601.41;5017074;28;20438;-77
2023/07/25 02:44:04;;;;;;;17.73;11.67;;;;;;;23.22;67.25;94610.00;5051999;28;20471;-78
2023/07/25 02:46:31;;;;;;;16.10;10.93;;;;;;;23.29;66.81;94600.88;5016627;28;20447;-77
2023/07/25 02:48:58;;;;;;;23.27;12.20;;;;;;;23.35;66.61;94605.38;5032868;28;20438;-77
2023/07/25 02:51:26;;;;;;;15.30;10.60;;;;;;;23.37;66.76;94591.78;5051596;28;20489;-78
2023/07/25 02:53:53;;;;;;;16.87;11.23;;;;;;;23.38;66.67;94588.88;5051698;28;20436;-77
2023/07/25 02:56:21;;;;;;;17.33;11.80;;;;;;;23.41;66.39;94582.25;5051584;28;20460;-77
2023/07/25 02:58:48;;;;;;;18.27;11.80;;;;;;;23.41;66.63;94585.75;5051683;28;20812;-77
2023/07/25 03:01:15;;;;;;;19.40;11.00;;;;;;;23.44;66.70;94581.84;5051985;28;20471;-77
2023/07/25 03:03:42;;;;;;;16.07;12.20;;;;;;;23.41;66.89;94577.72;5051507;28;20538;-77
2023/07/25 03:06:10;;;;;;;13.67;9.90;;;;;;;23.44;67.00;94580.00;5032947;28;20958;-78
2023/07/25 03:08:38;;;;;;;13.47;10.43;;;;;;;23.52;67.11;94584.25;5016057;28;20440;-77
2023/07/25 03:11:05;;;;;;;17.47;11.53;;;;;;;23.57;66.68;94580.97;5051566;28;20486;-78
2023/07/25 03:13:32;;;;;;;18.10;11.37;;;;;;;23.58;65.99;94583.41;5051819;28;20448;-77
2023/07/25 03:15:59;;;;;;;15.53;10.90;;;;;;;23.60;nan;94577.84;5051697;28;20447;-77
2023/07/25 03:18:25;;;;;;;21.30;13.10;;;;;;;23.60;66.47;94569.81;5016559;28;20860;-78
2023/07/25 03:20:52;;;;;;;17.90;12.37;;;;;;;23.62;66.14;94575.75;5051354;28;20452;-78
2023/07/25 03:23:19;;;;;;;18.13;12.17;;;;;;;23.59;66.34;94574.34;5051286;28;20451;-78
2023/07/25 03:25:47;;;;;;;16.80;12.40;;;;;;;23.66;66.61;94579.63;5051360;28;20448;-77
2023/07/25 03:28:14;;;;;;;15.03;11.60;;;;;;;23.70;66.48;94578.16;5032587;28;20425;-77
2023/07/25 03:30:43;;;;;;;18.37;12.70;;;;;;;23.65;66.18;94569.97;5051242;28;20488;-77
2023/07/25 03:33:09;;;;;;;23.10;12.43;;;;;;;23.67;66.35;94576.75;5051119;28;20919;-77
2023/07/25 03:35:36;;;;;;;20.40;12.60;;;;;;;23.68;66.26;94580.25;5051098;28;20787;-78
2023/07/25 03:38:03;;;;;;;22.13;12.60;;;;;;;23.66;66.36;94580.47;5051642;28;20473;-77
2023/07/25 03:40:30;;;;;;;20.97;12.40;;;;;;;23.63;67.01;94580.09;5051601;28;20451;-77
2023/07/25 03:43:01;;;;;;;24.17;13.70;;;;;;;23.60;67.04;94575.16;5051280;28;20937;-78
2023/07/25 03:45:28;;;;;;;24.10;12.83;;;;;;;23.62;66.22;94573.91;5051333;28;20445;-77
2023/07/25 03:47:57;;;;;;;30.17;13.30;;;;;;;23.56;66.73;94584.69;5050960;28;20453;-77
2023/07/25 03:50:24;;;;;;;30.23;13.87;;;;;;;23.57;66.60;94589.00;5051064;28;20448;-77
2023/07/25 03:52:51;;;;;;;22.70;13.97;;;;;;;23.63;66.52;94580.09;5051584;28;20491;-77
2023/07/25 03:55:18;;;;;;;20.43;12.30;;;;;;;23.68;66.12;94577.56;5051235;28;20451;-78
2023/07/25 03:57:46;;;;;;;19.43;12.90;;;;;;;23.72;66.42;94587.66;5051101;28;20444;-77
2023/07/25 04:00:17;;;;;;;16.60;11.00;;;;;;;23.82;65.96;94589.00;5050903;28;20448;-77
2023/07/25 04:02:44;;;;;;;24.27;12.33;;;;;;;23.94;66.13;94584.56;5051207;28;20448;-78
2023/07/25 04:05:10;;;;;;;22.23;12.53;;;;;;;24.08;65.87;94578.06;5050926;28;20451;-78
2023/07/25 04:07:37;;;;;;;17.40;12.40;;;;;;;24.30;64.77;94575.81;5050827;28;20947;-77
2023/07/25 04:10:07;;;;;;;21.33;11.83;;;;;;;24.57;64.08;94579.00;5054806;28;20464;-78
2023/07/25 04:12:34;;;;;;;16.13;12.17;;;;;;;24.77;62.36;94578.78;5054227;28;20571;-78
2023/07/25 04:15:00;;;;;;;16.90;10.63;;;;;;;25.03;60.89;94581.16;5019179;28;20450;-77
2023/07/25 04:17:29;;;;;;;18.63;12.67;;;;;;;25.08;61.07;94591.22;5019309;28;20449;-78
2023/07/25 04:19:55;;;;;;;16.20;11.13;;;;;;;25.10;60.84;94587.25;5054460;28;20461;-77
2023/07/25 04:22:26;;;;;;;18.47;11.10;;;;;;;24.87;60.50;94584.47;5054227;28;20449;-77
2023/07/25 04:24:53;;;;;;;12.87;9.77;;;;;;;25.07;60.19;94597.63;5054291;28;20466;-77
2023/07/25 04:27:19;;;;;;;23.20;15.60;;;;;;;25.19;59.95;94596.66;5054334;28;20448;-78
2023/07/25 04:29:46;;;;;;;17.53;13.20;;;;;;;25.47;59.39;94595.25;5035229;28;20962;-78
2023/07/25 04:32:13;;;;;;;21.93;11.93;;;;;;;25.78;59.11;94604.94;5054338;28;21195;-77
2023/07/25 04:34:41;;;;;;;21.43;12.73;;;;;;;25.80;58.92;94606.34;5054145;28;20446;-77
2023/07/25 04:37:08;;;;;;;17.30;11.90;;;;;;;25.80;58.53;94608.19;5054513;28;20438;-77
2023/07/25 04:39:35;;;;;;;18.00;11.90;;;;;;;25.59;57.42;94602.28;5053730;28;20450;-78
2023/07/25 04:42:02;;;;;;;19.43;13.90;;;;;;;25.16;59.92;94599.81;5054293;28;20521;-78
2023/07/25 04:44:29;;;;;;;21.43;12.90;;;;;;;25.37;59.67;94582.34;5054056;28;20470;-78
2023/07/25 04:46:55;;;;;;;26.00;14.53;;;;;;;25.68;58.48;94583.97;5053601;28;20450;-78
2023/07/25 04:49:25;;;;;;;26.90;12.83;;;;;;;26.06;57.74;94580.88;5054073;28;20450;-78
2023/07/25 04:51:55;;;;;;;32.40;13.00;;;;;;;26.30;56.67;94580.84;5053933;28;20516;-78
2023/07/25 04:54:23;;;;;;;19.57;11.63;;;;;;;26.50;55.63;94581.34;5054273;28;20457;-78
2023/07/25 04:56:50;;;;;;;21.27;12.43;;;;;;;26.73;54.84;94586.69;5053918;28;20446;-77
2023/07/25 04:59:19;;;;;;;26.73;13.00;;;;;;;26.76;53.62;94569.25;5053913;28;20446;-78
2023/07/25 05:01:45;;;;;;;29.10;12.77;;;;;;;26.99;53.85;94569.22;5053983;28;20450;-78
2023/07/25 05:04:12;;;;;;;26.70;11.93;;;;;;;27.39;53.04;94565.66;5053876;28;20453;-78
2023/07/25 05:06:39;;;;;;;24.83;13.00;;;;;;;27.63;52.76;94556.41;5053585;28;20450;-78
2023/07/25 05:09:07;;;;;;;21.27;12.83;;;;;;;27.82;50.99;94557.00;5053440;28;20449;-78
2023/07/25 05:11:34;;;;;;;28.50;12.80;;;;;;;28.05;50.83;94562.22;5053652;28;20485;-78
2023/07/25 05:14:01;;;;;;;22.90;14.60;;;;;;;28.35;50.48;94566.47;5053381;28;20453;-77
2023/07/25 05:16:27;;;;;;;20.50;13.50;;;;;;;28.65;50.22;94564.19;5053514;28;20445;-78
2023/07/25 05:18:54;;;;;;;28.00;13.60;;;;;;;28.76;48.80;94556.22;5052931;28;20446;-78
2023/07/25 05:21:22;;;;;;;20.93;12.87;;;;;;;28.75;49.44;94560.00;5053471;28;20438;-78
2023/07/25 05:23:49;;;;;;;21.07;14.17;;;;;;;28.91;48.80;94553.72;5053444;28;20449;-78
2023/07/25 05:26:20;;;;;;;21.30;13.80;;;;;;;29.15;48.20;94555.09;5053260;28;20441;-78
2023/07/25 05:28:47;;;;;;;31.33;13.60;;;;;;;29.45;47.99;94564.63;5053470;28;20446;-78
2023/07/25 05:31:17;;;;;;;17.50;12.80;;;;;;;29.62;45.87;94559.13;5053049;28;20987;-78
2023/07/25 05:33:46;;;;;;;24.57;13.17;;;;;;;29.79;45.26;94574.16;5053159;28;20441;-78
2023/07/25 05:36:13;;;;;;;25.07;13.90;;;;;;;29.99;45.23;94575.41;5053078;28;20454;-78
2023/07/25 05:38:41;;;;;;;20.80;13.83;;;;;;;30.06;44.70;94571.41;5053393;28;20438;-78
2023/07/25 05:41:08;;;;;;;23.17;13.90;;;;;;;30.29;45.21;94569.44;5053108;28;20838;-78
2023/07/25 05:43:39;;;;;;;28.43;13.87;;;;;;;30.35;43.53;94566.47;5052915;28;20460;-78
2023/07/25 05:46:07;;;;;;;24.43;13.90;;;;;;;30.37;44.90;94566.25;5052945;28;20928;-77
2023/07/25 05:48:35;;;;;;;21.03;11.87;;;;;;;30.39;44.37;94564.09;5052848;28;20944;-77
2023/07/25 05:51:02;;;;;;;17.00;11.93;;;;;;;30.12;43.88;94564.19;5017763;28;20453;-77
2023/07/25 05:53:29;;;;;;;16.40;12.70;;;;;;;30.39;43.82;94556.78;5017542;28;20489;-78
2023/07/25 05:55:59;;;;;;;17.80;12.67;;;;;;;30.62;42.05;94563.69;5052883;28;20452;-78
2023/07/25 05:58:26;;;;;;;18.13;12.67;;;;;;;30.77;41.76;94561.09;5053041;28;20516;-78
2023/07/25 06:00:54;;;;;;;16.93;13.60;;;;;;;30.80;41.76;94555.13;5052770;28;20529;-78
2023/07/25 06:03:21;;;;;;;16.60;11.40;;;;;;;30.91;40.68;94560.59;5052681;28;20457;-77
2023/07/25 06:05:48;;;;;;;19.07;12.30;;;;;;;31.00;40.41;94562.53;5052816;28;20446;-78
2023/07/25 06:08:15;;;;;;;17.33;13.73;;;;;;;31.22;40.98;94554.22;5033847;28;20452;-78
2023/07/25 06:10:48;;;;;;;22.27;12.27;;;;;;;31.49;39.72;94550.50;5052646;28;20858;-78
2023/07/25 06:13:17;;;;;;;18.83;12.30;;;;;;;31.63;37.98;94548.91;5052712;28;20481;-78
2023/07/25 06:15:44;;;;;;;16.93;12.30;;;;;;;31.90;38.86;94551.41;5017290;28;20442;-78
2023/07/25 06:18:12;;;;;;;17.20;12.60;;;;;;;31.69;37.66;94536.97;5052360;28;20468;-78
2023/07/25 06:20:39;;;;;;;19.50;12.60;;;;;;;31.66;37.72;94534.78;5051991;28;20442;-78
2023/07/25 06:23:06;;;;;;;17.47;11.40;;;;;;;31.71;38.43;94540.25;5052378;28;20469;-77
2023/07/25 06:25:33;;;;;;;20.43;13.10;;;;;;;31.96;38.45;94534.03;5052171;28;20446;-78
2023/07/25 06:28:04;;;;;;;16.87;11.23;;;;;;;32.27;37.63;94529.41;5052154;28;20445;-77
2023/07/25 06:30:31;;;;;;;14.80;12.27;;;;;;;32.58;36.46;94527.44;5017594;28;20474;-77
2023/07/25 06:32:58;;;;;;;14.53;12.73;;;;;;;32.57;36.85;94513.03;5052188;28;20489;-78
2023/07/25 06:35:30;;;;;;;16.37;12.00;;;;;;;32.60;36.57;94512.47;5052126;28;20449;-78
2023/07/25 06:37:57;;;;;;;21.27;12.50;;;;;;;32.68;37.04;94513.03;5052178;28;20449;-78
2023/07/25 06:40:27;;;;;;;21.00;12.00;;;;;;;32.68;38.48;94513.03;5051932;28;20438;-78
2023/07/25 06:42:54;;;;;;;19.07;12.67;;;;;;;32.69;38.06;94498.34;5052007;28;20457;-78
2023/07/25 06:45:21;;;;;;;15.70;13.03;;;;;;;32.75;38.33;94503.47;5052028;28;20445;-77
2023/07/25 06:47:47;;;;;;;19.67;12.70;;;;;;;32.79;38.73;94492.88;5052010;28;20457;-78
2023/07/25 06:50:17;;;;;;;16.77;12.80;;;;;;;31.91;39.52;94488.69;5051832;28;20448;-77
2023/07/25 06:52:45;;;;;;;20.37;13.50;;;;;;;31.91;40.66;94477.03;5051879;28;20488;-78
2023/07/25 06:55:15;;;;;;;22.67;12.37;;;;;;;32.20;39.07;94479.97;5052260;28;20444;-78
2023/07/25 06:57:47;;;;;;;26.60;13.73;;;;;;;32.32;38.99;94489.47;5051762;28;20872;-78
2023/07/25 07:00:15;;;;;;;33.40;12.57;;;;;;;32.48;38.94;94492.16;5051951;28;20449;-78
2023/07/25 07:02:42;;;;;;;23.80;13.47;;;;;;;32.65;38.58;94496.16;5052009;28;20868;-78
2023/07/25 07:05:09;;;;;;;16.43;11.67;;;;;;;32.65;38.32;94492.63;4967988;28;20521;-78
2023/07/25 07:07:36;;;;;;;24.70;12.10;;;;;;;32.79;38.32;94503.75;5051847;28;20651;-78
2023/07/25 07:10:07;;;;;;;21.37;12.17;;;;;;;32.73;38.75;94500.22;5051740;28;20450;-78
2023/07/25 07:12:34;;;;;;;14.43;11.93;;;;;;;32.70;39.40;94489.91;5051324;28;20481;-79
2023/07/25 07:15:01;;;;;;;20.10;12.87;;;;;;;32.73;38.97;94493.97;5051584;28;20554;-79
2023/07/25 07:17:28;;;;;;;27.30;14.30;;;;;;;32.78;38.14;94489.31;5051664;28;20446;-78
2023/07/25 07:20:00;;;;;;;19.93;13.10;;;;;;;32.73;38.40;94491.25;5032794;28;20440;-78
2023/07/25 07:22:27;;;;;;;19.47;12.40;;;;;;;32.85;38.68;94494.50;5051499;28;20436;-78
2023/07/25 07:24:56;;;;;;;19.97;12.17;;;;;;;32.86;38.64;94493.41;5051389;28;20955;-77
2023/07/25 07:27:24;;;;;;;21.13;13.17;;;;;;;33.13;37.18;94488.38;5016539;28;20515;-77
2023/07/25 07:29:53;;;;;;;18.07;12.00;;;;;;;33.42;37.07;94488.50;5051237;28;20453;-77
2023/07/25 07:32:20;;;;;;;21.47;12.60;;;;;;;33.50;36.43;94482.44;5016306;28;20551;-77
2023/07/25 07:34:47;;;;;;;17.33;12.47;;;;;;;33.51;36.43;94483.25;5051336;28;20452;-77
2023/07/25 07:37:14;;;;;;;22.17;13.27;;;;;;;33.49;36.16;94482.72;5051448;28;20446;-78
2023/07/25 07:39:41;;;;;;;27.77;13.57;;;;;;;33.54;35.90;94483.53;5051228;28;20937;-77
2023/07/25 07:42:08;;;;;;;20.60;13.27;;;;;;;33.55;35.64;94473.44;5052331;28;20523;-77
2023/07/25 07:44:36;;;;;;;23.23;13.13;;;;;;;33.68;35.84;94477.41;5055098;28;20442;-77
2023/07/25 07:47:03;;;;;;;21.80;13.77;;;;;;;33.60;35.64;94473.41;5055315;28;20445;-77
2023/07/25 07:49:30;;;;;;;16.83;12.20;;;;;;;33.67;36.65;94481.25;5054849;28;20453;-77
2023/07/25 07:51:57;;;;;;;14.90;12.83;;;;;;;33.71;36.75;94474.94;5055165;28;20446;-77
2023/07/25 07:54:24;;;;;;;23.20;12.67;;;;;;;33.53;36.92;94475.63;5019788;28;20449;-77
2023/07/25 07:56:50;;;;;;;23.17;14.40;;;;;;;33.18;36.79;94482.88;5036334;28;21040;-77
2023/07/25 07:59:17;;;;;;;23.77;14.07;;;;;;;33.38;37.54;94479.28;5055297;28;20445;-78
2023/07/25 08:01:45;;;;;;;24.03;14.80;;;;;;;33.58;35.79;94469.34;5055011;28;20452;-77
2023/07/25 08:04:13;;;;;;;20.20;13.83;;;;;;;33.81;36.06;94453.06;5036083;28;20473;-77
2023/07/25 08:06:39;;;;;;;23.07;14.70;;;;;;;34.00;36.08;94449.66;5054493;28;20936;-77
2023/07/25 08:09:08;;;;;;;25.07;16.40;;;;;;;34.10;35.93;94441.38;5054725;28;20459;-77
2023/07/25 08:11:34;;;;;;;24.40;15.00;;;;;;;34.10;36.25;94453.09;5054745;28;20908;-77
2023/07/25 08:14:01;;;;;;;21.53;14.03;;;;;;;33.88;36.54;94446.53;5054816;28;20500;-78
2023/07/25 08:16:28;;;;;;;31.80;14.87;;;;;;;33.65;36.52;94450.78;5054548;28;20797;-77
2023/07/25 08:18:56;;;;;;;24.30;15.17;;;;;;;33.38;37.02;94435.75;5054425;28;21241;-77
2023/07/25 08:21:23;;;;;;;20.67;14.97;;;;;;;33.28;37.49;94448.59;5054485;28;20445;-77
2023/07/25 08:23:50;;;;;;;27.37;16.60;;;;;;;33.45;36.88;94441.66;5054300;28;20492;-77
2023/07/25 08:26:17;;;;;;;28.20;16.77;;;;;;;33.57;36.82;94441.31;5054733;28;20468;-77
2023/07/25 08:28:43;;;;;;;29.57;14.20;;;;;;;33.75;36.17;94435.16;5054200;28;20453;-77
2023/07/25 08:31:10;;;;;;;20.37;14.10;;;;;;;33.95;35.68;94445.09;5035225;28;20469;-77
2023/07/25 08:33:37;;;;;;;19.80;13.70;;;;;;;34.21;36.67;94437.47;5054388;28;20492;-76
2023/07/25 08:36:05;;;;;;;32.97;14.90;;;;;;;34.01;35.90;94430.31;5054118;28;20449;-76
2023/07/25 08:38:32;;;;;;;23.10;13.73;;;;;;;33.97;35.84;94428.47;5054198;28;20441;-77
2023/07/25 08:41:03;;;;;;;23.63;14.80;;;;;;;33.64;36.67;94417.31;5054567;28;20456;-78
2023/07/25 08:43:31;;;;;;;31.20;14.90;;;;;;;33.82;37.07;94422.03;5053828;28;20480;-77
2023/07/25 08:46:00;;;;;;;19.40;13.90;;;;;;;34.00;37.56;94419.72;5053817;28;20449;-77
2023/07/25 08:48:27;;;;;;;24.70;14.20;;;;;;;34.11;35.70;94419.31;5054042;28;20446;-77
2023/07/25 08:50:57;;;;;;;24.43;14.80;;;;;;;34.22;36.01;94417.31;5053913;28;20484;-77
2023/07/25 08:53:26;;;;;;;16.07;12.57;;;;;;;34.14;34.49;94409.78;5053207;28;20527;-77
2023/07/25 08:55:53;;;;;;;18.93;13.43;;;;;;;34.32;33.63;94406.28;5053744;28;20479;-77
2023/07/25 08:58:20;;;;;;;17.57;11.80;;;;;;;34.49;34.43;94405.84;5053669;28;20492;-77
2023/07/25 09:00:48;;;;;;;15.97;12.63;;;;;;;34.63;33.78;94406.75;5054197;28;20453;-77
2023/07/25 09:03:16;;;;;;;16.43;12.03;;;;;;;34.85;34.30;94403.50;5053582;28;20944;-77
2023/07/25 09:05:43;;;;;;;17.70;12.73;;;;;;;34.93;33.38;94402.03;5053796;28;20446;-77
2023/07/25 09:08:10;;;;;;;17.07;12.23;;;;;;;34.96;33.55;94415.88;5051830;28;20445;-77
2023/07/25 09:10:39;;;;;;;20.13;12.33;;;;;;;34.68;33.93;94400.41;5053404;28;20804;-77
2023/07/25 09:13:06;;;;;;;17.37;11.70;;;;;;;34.68;33.91;94397.69;5053126;28;20497;-77
2023/07/25 09:15:32;;;;;;;22.03;13.00;;;;;;;34.68;33.36;94397.69;5053634;28;20450;-77
2023/07/25 09:17:59;;;;;;;26.90;12.37;;;;;;;34.75;34.12;94398.16;5053454;28;20454;-77
2023/07/25 09:20:27;;;;;;;20.50;12.57;;;;;;;34.78;33.68;94386.69;5053361;28;20452;-78
2023/07/25 09:22:53;;;;;;;23.00;12.10;;;;;;;34.88;33.98;94391.19;5053595;28;20453;-78
2023/07/25 09:25:20;;;;;;;19.80;10.80;;;;;;;34.94;34.30;94390.81;5052877;28;20454;-78
2023/07/25 09:27:49;;;;;;;18.33;11.13;;;;;;;34.68;32.45;94379.41;5053151;28;20932;-77
2023/07/25 09:30:16;;;;;;;15.87;10.20;;;;;;;34.66;33.04;94383.56;5052795;28;20478;-77
2023/07/25 09:32:47;;;;;;;18.80;11.67;;;;;;;34.55;33.74;94373.91;5053455;28;20543;-78
2023/07/25 09:35:14;;;;;;;17.07;11.33;;;;;;;34.54;33.98;94377.72;5052782;28;20524;-77
2023/07/25 09:37:40;;;;;;;18.30;11.67;;;;;;;34.57;34.59;94371.69;5053052;28;20442;-77
2023/07/25 09:40:10;;;;;;;18.20;11.00;;;;;;;34.77;35.35;94374.16;5052926;28;20476;-78
2023/07/25 09:42:41;;;;;;;14.77;11.50;;;;;;;34.80;34.16;94373.56;5053058;28;20503;-77
2023/07/25 09:45:11;;;;;;;15.33;11.27;;;;;;;34.88;34.99;94370.19;5017802;28;20498;-77
2023/07/25 09:47:39;;;;;;;23.30;10.83;;;;;;;34.97;34.02;94360.22;5052823;28;20441;-78
2023/07/25 09:50:07;;;;;;;20.80;11.80;;;;;;;34.95;33.91;94364.34;5052587;28;20446;-78
2023/07/25 09:52:44;;;;;;;13.43;10.50;;;;;;;34.86;33.90;94366.94;5052893;28;20441;-77
2023/07/25 09:55:10;;;;;;;16.90;11.50;;;;;;;34.87;34.86;94367.75;5052750;28;20441;-77
2023/07/25 09:57:37;;;;;;;17.13;11.80;;;;;;;34.77;34.39;94368.69;5052707;28;20539;-78
2023/07/25 10:00:06;;;;;;;16.17;11.17;;;;;;;34.67;34.94;94357.91;5053024;28;20448;-77
2023/07/25 10:02:35;;;;;;;20.10;12.27;;;;;;;34.63;36.01;94354.97;5016948;28;20524;-78
2023/07/25 10:05:02;;;;;;;17.57;12.10;;;;;;;34.65;35.95;94355.47;5052550;28;20438;-77
2023/07/25 10:07:33;;;;;;;17.27;11.60;;;;;;;34.71;36.00;94354.31;5052691;28;20548;-77
2023/07/25 10:10:04;;;;;;;20.20;12.27;;;;;;;34.68;37.06;94348.63;5052602;28;20529;-78
2023/07/25 10:12:33;;;;;;;22.37;12.03;;;;;;;34.66;36.19;94343.47;5052787;28;20473;-77
2023/07/25 10:15:00;;;;;;;20.67;12.70;;;;;;;34.62;36.31;94341.63;5017342;28;20525;-78
2023/07/25 10:17:27;;;;;;;16.20;11.70;;;;;;;34.64;37.71;94326.59;5052230;28;20954;-78
2023/07/25 10:19:56;;;;;;;16.90;12.57;;;;;;;34.56;36.78;94316.38;5052025;28;20446;-77
2023/07/25 10:22:36;;;;;;;16.43;10.87;;;;;;;34.61;37.35;94316.28;5052258;28;20438;-77
2023/07/25 10:25:03;;;;;;;16.10;12.87;;;;;;;34.57;36.84;94317.97;5052346;28;20445;-77
2023/07/25 10:27:30;;;;;;;18.90;11.77;;;;;;;34.69;37.48;94312.09;5052067;28;20460;-77
2023/07/25 10:30:01;;;;;;;18.03;11.43;;;;;;;34.75;36.76;94306.28;5051580;28;20464;-77
2023/07/25 10:32:44;;;;;;;15.13;11.47;;;;;;;34.87;36.71;94305.84;5052292;28;20868;-77
2023/07/25 10:35:12;;;;;;;17.97;11.53;;;;;;;34.92;36.90;94300.31;5052107;28;20454;-77
2023/07/25 10:37:43;;;;;;;16.20;11.90;;;;;;;35.04;37.59;94297.16;5052361;28;20441;-78
2023/07/25 10:40:13;;;;;;;15.80;12.60;;;;;;;35.08;37.00;94295.44;5053118;28;20445;-78
2023/07/25 10:42:45;;;;;;;21.00;13.17;;;;;;;35.04;36.34;94281.59;5051826;28;20448;-77
2023/07/25 10:45:47;;;;;;;23.00;12.47;;;;;;;35.02;37.03;94272.09;5051903;28;20442;-77
2023/07/25 10:48:47;;;;;;;18.93;11.00;;;;;;;34.84;36.14;94275.66;5051628;28;20460;-78
2023/07/25 10:51:17;;;;;;;14.67;10.90;;;;;;;34.76;36.64;94266.19;5016464;28;20450;-78
2023/07/25 10:54:09;;;;;;;17.33;11.47;;;;;;;34.92;37.44;94262.13;5051949;28;21129;-77
2023/07/25 10:56:37;;;;;;;20.20;11.70;;;;;;;34.94;37.03;94249.00;5051570;28;20480;-77
2023/07/25 10:59:07;;;;;;;28.37;12.50;;;;;;;35.05;37.03;94249.66;5051683;28;20449;-77
2023/07/25 11:01:36;;;;;;;22.80;11.30;;;;;;;35.16;36.70;94250.28;5051515;28;20457;-77
2023/07/25 11:04:36;;;;;;;18.10;11.30;;;;;;;35.31;37.03;94236.41;5016745;28;20460;-78
2023/07/25 11:07:11;;;;;;;26.37;11.20;;;;;;;35.36;35.54;94223.50;4989990;28;20452;-78
2023/07/25 11:09:42;;;;;;;21.57;11.13;;;;;;;35.48;36.28;94217.53;4989785;28;20980;-77
2023/07/25 11:12:09;;;;;;;22.87;11.80;;;;;;;35.54;35.81;94219.03;4957922;28;20483;-78
2023/07/25 11:14:42;;;;;;;24.13;10.83;;;;;;;35.51;35.81;94221.56;4989803;28;20559;-78
2023/07/25 11:17:08;;;;;;;17.53;10.67;;;;;;;35.60;35.08;94215.13;4990772;28;20527;-78
2023/07/25 11:19:35;;;;;;;17.63;11.30;;;;;;;35.73;36.91;94229.06;4993863;28;20463;-78
2023/07/25 11:22:10;;;;;;;22.90;11.37;;;;;;;35.77;33.67;94221.88;4993905;28;20456;-77